Time;durP1;ratioP1;P1;durP2;ratioP2;P2;SDS_P1;SDS_P2;PMS_P1;PMS_P2;Temp;Humidity;BMP_temperature;BMP_pressure;BME280_temperature;BME280_humidity;BME280_pressure;Samples;Min_cycle;Max_cycle;Signal;HPM_P1;HPM_P2
2023/07/01 00:01:25;;;;;;;12.33;1.83;;;17.70;99.90;;;;;;5013095;28;20425;-66
2023/07/01 00:03:51;;;;;;;13.07;1.50;;;17.70;99.90;;;;;;5013298;28;20038;-66
2023/07/01 00:06:19;;;;;;;8.17;1.50;;;17.70;99.90;;;;;;5013044;28;20054;-66
2023/07/01 00:08:45;;;;;;;5.15;1.50;;;17.70;99.90;;;;;;5013216;28;20084;-66
2023/07/01 00:11:11;;;;;;;9.00;1.50;;;17.70;99.90;;;;;;4995885;28;20451;-67
2023/07/01 00:13:36;;;;;;;8.93;1.45;;;17.80;99.90;;;;;;4996683;28;20441;-66
2023/07/01 00:16:04;;;;;;;9.07;1.50;;;17.80;99.90;;;;;;4995693;28;20038;-66
2023/07/01 00:18:30;;;;;;;7.45;1.55;;;17.80;99.90;;;;;;4996150;28;20104;-66
2023/07/01 00:20:56;;;;;;;10.33;1.23;;;17.80;99.90;;;;;;5013554;28;20462;-66
2023/07/01 00:23:22;;;;;;;6.20;1.33;;;17.80;99.90;;;;;;4995924;28;20053;-66
2023/07/01 00:25:48;;;;;;;9.47;1.53;;;17.70;99.90;;;;;;4999434;28;20041;-65
2023/07/01 00:28:14;;;;;;;6.63;1.20;;;17.80;99.90;;;;;;4983328;28;20136;-66
2023/07/01 00:30:40;;;;;;;6.57;1.33;;;17.80;99.90;;;;;;5016805;28;20141;-66
2023/07/01 00:33:05;;;;;;;12.82;1.40;;;17.80;99.90;;;;;;5017184;28;20054;-66
2023/07/01 00:35:32;;;;;;;6.50;1.60;;;17.70;99.90;;;;;;4999098;28;20103;-65
2023/07/01 00:37:58;;;;;;;9.48;1.23;;;17.70;99.90;;;;;;4999044;28;20061;-66
2023/07/01 00:40:23;;;;;;;9.13;1.40;;;17.70;99.90;;;;;;4999118;28;20050;-66
2023/07/01 00:42:49;;;;;;;11.37;1.57;;;17.70;99.90;;;;;;4983031;28;20080;-66
2023/07/01 00:45:15;;;;;;;8.00;1.43;;;17.70;99.90;;;;;;5016445;28;20125;-66
2023/07/01 00:47:41;;;;;;;5.17;1.20;;;17.70;99.90;;;;;;5016417;28;20479;-66
2023/07/01 00:50:12;;;;;;;7.07;1.53;;;17.70;99.90;;;;;;5016378;28;20046;-66
2023/07/01 00:52:39;;;;;;;10.77;1.70;;;17.70;99.90;;;;;;5016236;28;20088;-67
2023/07/01 00:55:07;;;;;;;12.20;1.75;;;17.70;99.90;;;;;;4999477;28;20263;-67
2023/07/01 00:57:33;;;;;;;7.95;1.67;;;17.70;99.90;;;;;;5016229;28;20053;-67
2023/07/01 01:00:07;;;;;;;8.68;1.90;;;17.80;99.90;;;;;;5016247;28;20099;-66
2023/07/01 01:02:43;;;;;;;7.00;1.48;;;17.80;99.90;;;;;;4998983;28;20050;-67
2023/07/01 01:05:15;;;;;;;5.53;1.73;;;17.90;99.90;;;;;;5016477;28;20504;-67
2023/07/01 01:08:06;;;;;;;7.70;1.67;;;17.90;99.90;;;;;;5016645;28;20188;-66
2023/07/01 01:10:35;;;;;;;6.13;1.55;;;17.90;99.90;;;;;;4999075;28;20084;-66
2023/07/01 01:13:04;;;;;;;7.00;1.58;;;17.80;99.90;;;;;;5015894;28;20148;-65
2023/07/01 01:15:30;;;;;;;9.73;2.05;;;17.80;99.90;;;;;;5016355;28;20042;-66
2023/07/01 01:17:59;;;;;;;5.97;1.50;;;17.80;99.90;;;;;;5016601;28;20053;-70
2023/07/01 01:20:30;;;;;;;6.40;1.50;;;17.80;99.90;;;;;;5016411;28;20497;-66
2023/07/01 01:23:01;;;;;;;6.15;1.52;;;17.80;99.90;;;;;;4998263;28;20103;-69
2023/07/01 01:25:49;;;;;;;6.88;1.50;;;17.80;99.90;;;;;;5016375;28;20045;-66
2023/07/01 01:28:15;;;;;;;6.43;1.73;;;17.80;99.90;;;;;;5015935;28;20041;-65
2023/07/01 01:30:41;;;;;;;8.40;1.85;;;17.80;99.90;;;;;;5016487;28;20137;-65
2023/07/01 01:33:07;;;;;;;8.70;1.80;;;17.80;99.90;;;;;;4998062;28;20057;-65
2023/07/01 01:35:33;;;;;;;9.80;2.10;;;17.90;99.90;;;;;;5015456;28;20301;-66
2023/07/01 01:38:05;;;;;;;8.17;1.80;;;17.90;99.90;;;;;;4998051;28;20042;-71
2023/07/01 01:40:43;;;;;;;6.88;1.80;;;17.90;99.90;;;;;;5015267;28;20568;-66
2023/07/01 01:43:20;;;;;;;6.47;1.73;;;17.90;99.90;;;;;;4998326;28;20061;-66
2023/07/01 01:45:47;;;;;;;7.03;1.80;;;17.90;99.90;;;;;;5015626;28;20433;-66
2023/07/01 01:48:13;;;;;;;8.30;1.85;;;17.90;99.90;;;;;;5015573;28;20187;-66
2023/07/01 01:50:41;;;;;;;5.77;1.70;;;17.90;99.90;;;;;;5015238;28;20046;-66
2023/07/01 01:53:08;;;;;;;6.15;1.80;;;17.80;99.90;;;;;;5015120;28;20288;-66
2023/07/01 01:55:33;;;;;;;;;;;17.80;99.90;;;;;;5015567;28;20049;-66
2023/07/01 01:58:00;;;;;;;9.03;1.67;;;17.80;99.90;;;;;;4997944;28;19975;-66
2023/07/01 02:00:26;;;;;;;8.25;1.90;;;17.80;99.90;;;;;;5014625;28;20589;-66
2023/07/01 02:02:51;;;;;;;8.63;2.00;;;17.80;99.90;;;;;;5015290;28;20137;-67
2023/07/01 02:05:17;;;;;;;9.07;1.97;;;17.80;99.90;;;;;;4981265;28;20045;-69
2023/07/01 02:07:43;;;;;;;6.38;1.83;;;17.80;99.90;;;;;;4982256;28;20054;-66
2023/07/01 02:10:09;;;;;;;6.55;2.10;;;17.80;99.90;;;;;;4997138;28;20573;-67
2023/07/01 02:12:35;;;;;;;6.50;1.80;;;17.70;99.90;;;;;;5015325;28;20133;-65
2023/07/01 02:15:00;;;;;;;8.82;2.10;;;17.70;99.90;;;;;;4997589;28;20092;-66
2023/07/01 02:17:26;;;;;;;6.50;2.00;;;17.60;99.90;;;;;;4997413;28;20038;-65
2023/07/01 02:19:52;;;;;;;8.70;1.70;;;17.60;99.90;;;;;;5015476;28;20482;-67
2023/07/01 02:22:17;;;;;;;6.07;1.90;;;17.60;99.90;;;;;;5015294;28;20045;-66
2023/07/01 02:24:43;;;;;;;7.57;1.80;;;17.60;99.90;;;;;;5014678;28;20510;-66
2023/07/01 02:27:09;;;;;;;7.60;1.97;;;17.60;99.90;;;;;;5014531;28;20041;-66
2023/07/01 02:29:35;;;;;;;7.60;1.80;;;17.60;99.90;;;;;;4981619;28;20061;-66
2023/07/01 02:32:01;;;;;;;4.40;1.53;;;17.60;99.90;;;;;;4980824;28;20061;-66
2023/07/01 02:34:27;;;;;;;7.43;1.80;;;17.60;99.90;;;;;;5013961;28;20049;-66
2023/07/01 02:36:55;;;;;;;12.73;2.20;;;17.50;99.90;;;;;;5014459;28;20453;-66
2023/07/01 02:39:21;;;;;;;11.15;1.98;;;17.50;99.90;;;;;;5014362;28;20045;-66
2023/07/01 02:41:47;;;;;;;5.57;1.70;;;17.50;99.90;;;;;;4980828;28;20050;-67
2023/07/01 02:44:13;;;;;;;6.20;1.70;;;17.50;99.90;;;;;;4997458;28;20041;-67
2023/07/01 02:46:38;;;;;;;5.38;1.55;;;17.50;99.90;;;;;;4964676;28;20049;-66
2023/07/01 02:49:04;;;;;;;3.73;1.50;;;17.60;99.90;;;;;;5014802;28;20054;-67
2023/07/01 02:51:30;;;;;;;10.50;2.00;;;17.60;99.90;;;;;;4997729;28;20454;-66
2023/07/01 02:53:56;;;;;;;7.32;1.70;;;17.50;99.90;;;;;;5014254;28;20053;-66
2023/07/01 02:56:21;;;;;;;5.93;1.52;;;17.50;99.90;;;;;;4980654;28;20111;-66
2023/07/01 02:58:47;;;;;;;5.60;1.40;;;17.50;99.90;;;;;;4981497;28;20179;-66
2023/07/01 03:01:13;;;;;;;6.88;1.70;;;17.40;99.90;;;;;;5014042;28;20410;-65
2023/07/01 03:03:39;;;;;;;5.63;1.83;;;17.50;99.90;;;;;;4996162;28;20486;-67
2023/07/01 03:06:05;;;;;;;5.90;1.90;;;17.40;99.90;;;;;;5013542;28;20089;-68
2023/07/01 03:08:31;;;;;;;12.25;1.58;;;17.50;99.90;;;;;;4996633;28;20059;-67
2023/07/01 03:10:57;;;;;;;4.63;1.53;;;17.50;99.90;;;;;;4996523;28;20116;-64
2023/07/01 03:13:22;;;;;;;4.47;1.50;;;17.50;99.90;;;;;;4996161;28;20052;-66
2023/07/01 03:15:49;;;;;;;8.95;1.88;;;17.60;99.90;;;;;;5013840;28;20048;-66
2023/07/01 03:18:15;;;;;;;4.50;1.70;;;17.60;99.90;;;;;;5013725;28;20452;-65
2023/07/01 03:20:40;;;;;;;9.75;1.95;;;17.50;99.90;;;;;;5014069;28;20134;-66
2023/07/01 03:23:06;;;;;;;7.93;1.67;;;17.60;99.90;;;;;;5013887;28;20077;-68
2023/07/01 03:25:32;;;;;;;9.75;1.90;;;17.50;99.90;;;;;;5013775;28;20045;-68
2023/07/01 03:27:57;;;;;;;7.90;1.47;;;17.60;99.90;;;;;;4996271;28;20054;-67
2023/07/01 03:30:29;;;;;;;7.28;1.60;;;17.50;99.90;;;;;;5013970;28;20415;-68
2023/07/01 03:32:56;;;;;;;7.43;1.50;;;17.50;99.90;;;;;;5013998;28;20379;-67
2023/07/01 03:35:22;;;;;;;6.65;1.40;;;17.40;99.90;;;;;;5013359;28;20049;-66
2023/07/01 03:37:48;;;;;;;7.80;1.58;;;17.40;99.90;;;;;;5013628;28;20091;-66
2023/07/01 03:40:13;;;;;;;6.20;1.60;;;17.40;99.90;;;;;;4995794;28;20516;-72
2023/07/01 03:42:40;;;;;;;5.93;1.55;;;17.30;99.90;;;;;;4980057;28;20123;-66
2023/07/01 03:45:08;;;;;;;8.55;1.50;;;17.30;99.90;;;;;;4996038;28;20046;-65
2023/07/01 03:47:35;;;;;;;6.93;1.42;;;17.20;99.90;;;;;;4995900;28;20057;-65
2023/07/01 03:50:01;;;;;;;6.60;1.45;;;17.10;99.90;;;;;;4980392;28;20092;-66
2023/07/01 03:52:27;;;;;;;3.65;1.30;;;17.20;99.90;;;;;;4979712;28;20433;-67
2023/07/01 03:54:52;;;;;;;6.47;1.75;;;17.10;99.90;;;;;;5013284;28;20135;-67
2023/07/01 03:57:18;;;;;;;8.60;1.93;;;17.10;99.90;;;;;;4995843;28;20054;-68
2023/07/01 03:59:44;;;;;;;8.68;2.28;;;17.00;99.90;;;;;;5015746;28;20038;-67
2023/07/01 04:02:10;;;;;;;5.00;1.73;;;16.80;99.90;;;;;;5000381;28;20056;-67
2023/07/01 04:04:36;;;;;;;8.40;2.17;;;16.60;99.90;;;;;;5018027;28;20378;-67
2023/07/01 04:07:04;;;;;;;7.57;2.00;;;16.30;99.90;;;;;;5017820;28;20501;-66
2023/07/01 04:09:30;;;;;;;5.07;2.00;;;16.20;99.90;;;;;;4999470;28;20116;-67
2023/07/01 04:11:56;;;;;;;7.00;2.22;;;16.10;99.90;;;;;;4967587;28;20054;-66
2023/07/01 04:14:23;;;;;;;6.93;1.90;;;16.20;99.90;;;;;;4999662;28;20450;-68
2023/07/01 04:16:49;;;;;;;6.20;2.00;;;16.20;99.90;;;;;;5017127;28;20125;-67
2023/07/01 04:19:15;;;;;;;6.82;1.95;;;16.20;99.90;;;;;;4999549;28;20104;-66
2023/07/01 04:21:41;;;;;;;4.55;1.98;;;16.30;99.90;;;;;;4999992;28;20425;-66
2023/07/01 04:24:07;;;;;;;7.65;2.13;;;16.30;99.90;;;;;;4983304;28;20438;-67
2023/07/01 04:26:36;;;;;;;6.63;1.70;;;16.30;99.90;;;;;;4999182;28;20475;-67
2023/07/01 04:29:03;;;;;;;3.75;2.00;;;16.40;99.90;;;;;;5016556;28;20280;-66
2023/07/01 04:31:29;;;;;;;5.72;2.15;;;16.30;99.90;;;;;;5016985;28;20050;-65
2023/07/01 04:33:55;;;;;;;6.68;2.30;;;16.40;99.90;;;;;;4999129;28;20203;-65
2023/07/01 04:36:21;;;;;;;4.50;2.25;;;16.40;99.90;;;;;;4999236;28;20081;-68
2023/07/01 04:38:47;;;;;;;7.43;2.03;;;16.40;99.90;;;;;;5016557;28;20057;-66
2023/07/01 04:41:13;;;;;;;8.75;2.05;;;16.40;99.90;;;;;;5016651;28;20430;-65
2023/07/01 04:43:40;;;;;;;9.45;2.38;;;16.30;99.90;;;;;;4999012;28;20112;-65
2023/07/01 04:46:06;;;;;;;6.05;2.08;;;16.30;99.90;;;;;;5016235;28;20494;-65
2023/07/01 04:48:32;;;;;;;6.27;1.80;;;16.40;99.90;;;;;;4982895;28;20105;-65
2023/07/01 04:50:57;;;;;;;6.18;2.33;;;16.40;99.90;;;;;;4999219;28;20284;-65
2023/07/01 04:53:23;;;;;;;5.20;2.13;;;16.40;99.90;;;;;;4998936;28;20050;-70
2023/07/01 04:55:50;;;;;;;10.10;2.35;;;16.40;99.90;;;;;;5016289;28;20104;-66
2023/07/01 04:58:16;;;;;;;6.30;2.55;;;16.40;99.90;;;;;;4999055;28;20081;-66
2023/07/01 05:00:42;;;;;;;7.22;2.55;;;16.40;99.90;;;;;;4998731;28;20042;-66
2023/07/01 05:03:07;;;;;;;6.27;2.47;;;16.40;99.90;;;;;;4999205;28;20397;-66
2023/07/01 05:05:33;;;;;;;6.60;2.60;;;16.40;99.90;;;;;;5015955;28;20072;-69
2023/07/01 05:07:59;;;;;;;8.18;3.05;;;16.40;99.90;;;;;;4998313;28;20056;-66
2023/07/01 05:10:25;;;;;;;5.83;2.60;;;16.50;99.90;;;;;;5015947;28;20046;-67
2023/07/01 05:12:51;;;;;;;11.85;2.63;;;16.50;99.90;;;;;;5016574;28;20050;-65
2023/07/01 05:15:17;;;;;;;5.18;2.30;;;16.50;99.90;;;;;;5016019;28;20458;-67
2023/07/01 05:17:43;;;;;;;6.87;2.63;;;16.50;99.90;;;;;;5015811;28;20042;-66
2023/07/01 05:20:10;;;;;;;9.02;2.70;;;16.60;99.90;;;;;;4982403;28;20077;-65
2023/07/01 05:22:36;;;;;;;6.97;2.53;;;16.60;99.90;;;;;;4999150;28;20042;-66
2023/07/01 05:25:03;;;;;;;4.95;2.05;;;16.60;99.90;;;;;;5016629;28;20037;-67
2023/07/01 05:27:29;;;;;;;;;;;16.70;99.90;;;;;;4983056;28;20050;-68
2023/07/01 05:29:55;;;;;;;7.13;2.40;;;16.70;99.90;;;;;;4998313;28;19972;-67
2023/07/01 05:32:21;;;;;;;9.55;2.22;;;16.70;99.90;;;;;;5016204;28;20049;-67
2023/07/01 05:34:47;;;;;;;7.72;2.42;;;16.80;99.90;;;;;;5015524;28;20104;-67
2023/07/01 05:37:13;;;;;;;6.07;2.42;;;16.90;99.90;;;;;;4997974;28;20391;-65
2023/07/01 05:39:38;;;;;;;6.45;2.20;;;16.90;99.90;;;;;;5016118;28;20088;-66
2023/07/01 05:42:04;;;;;;;6.68;2.75;;;16.90;99.90;;;;;;4997907;28;20103;-66
2023/07/01 05:44:30;;;;;;;4.77;2.00;;;17.00;99.90;;;;;;5015407;28;20057;-67
2023/07/01 05:46:56;;;;;;;7.95;2.75;;;17.00;99.90;;;;;;5015444;28;20041;-65
2023/07/01 05:49:22;;;;;;;8.57;2.17;;;17.00;99.90;;;;;;4997862;28;20046;-66
2023/07/01 05:51:48;;;;;;;6.63;2.13;;;17.00;99.90;;;;;;5015204;28;20049;-67
2023/07/01 05:54:14;;;;;;;6.03;2.40;;;17.10;99.90;;;;;;5015166;28;20095;-66
2023/07/01 05:56:39;;;;;;;5.37;2.47;;;17.10;99.90;;;;;;4998352;28;20371;-66
2023/07/01 05:59:05;;;;;;;5.97;2.65;;;17.10;99.90;;;;;;5014858;28;20045;-67
2023/07/01 06:01:31;;;;;;;6.90;2.70;;;17.00;99.90;;;;;;5015589;28;20041;-67
2023/07/01 06:03:57;;;;;;;6.05;2.30;;;17.00;99.90;;;;;;5015046;28;20512;-68
2023/07/01 06:06:23;;;;;;;10.27;2.07;;;17.00;99.90;;;;;;5015112;28;20058;-68
2023/07/01 06:08:49;;;;;;;7.10;2.65;;;17.00;99.90;;;;;;5015742;28;20125;-65
2023/07/01 06:11:15;;;;;;;5.93;3.22;;;17.20;99.90;;;;;;4997448;28;20065;-65
2023/07/01 06:13:45;;;;;;;6.93;3.27;;;16.90;99.90;;;;;;5014770;28;20050;-66
2023/07/01 06:16:12;;;;;;;7.35;3.17;;;16.80;99.90;;;;;;5014734;28;20044;-66
2023/07/01 06:18:38;;;;;;;9.27;3.20;;;16.70;99.90;;;;;;5014744;28;20389;-67
2023/07/01 06:21:06;;;;;;;7.32;3.17;;;16.70;99.90;;;;;;4980121;28;20053;-67
2023/07/01 06:23:41;;;;;;;9.55;3.33;;;16.70;99.90;;;;;;4997322;28;20080;-67
2023/07/01 06:26:07;;;;;;;6.82;3.15;;;16.70;99.90;;;;;;4997362;28;20085;-68
2023/07/01 06:28:33;;;;;;;7.85;3.03;;;16.70;99.90;;;;;;5014359;28;20081;-67
2023/07/01 06:30:59;;;;;;;8.97;3.20;;;16.70;99.90;;;;;;5015102;28;20045;-67
2023/07/01 06:33:24;;;;;;;10.05;3.50;;;16.70;99.90;;;;;;4997236;28;20068;-69
2023/07/01 06:35:50;;;;;;;9.15;3.80;;;16.70;99.90;;;;;;4997097;28;20086;-68
2023/07/01 06:38:16;;;;;;;6.70;3.28;;;16.80;99.90;;;;;;4980849;28;20054;-68
2023/07/01 06:40:42;;;;;;;7.18;3.25;;;16.70;99.90;;;;;;5014969;28;20485;-68
2023/07/01 06:43:07;;;;;;;7.97;3.42;;;16.80;99.90;;;;;;4981056;28;20037;-67
2023/07/01 06:45:33;;;;;;;5.60;3.50;;;16.80;99.90;;;;;;4996895;28;20487;-68
2023/07/01 06:47:59;;;;;;;7.78;3.78;;;16.80;99.90;;;;;;4996757;28;20041;-68
2023/07/01 06:50:25;;;;;;;6.90;3.72;;;16.80;99.90;;;;;;4997857;28;20534;-68
2023/07/01 06:52:51;;;;;;;5.68;3.53;;;16.80;99.90;;;;;;4964810;28;20041;-69
2023/07/01 06:55:17;;;;;;;7.83;3.50;;;16.80;99.90;;;;;;5013920;28;20124;-68
2023/07/01 06:57:43;;;;;;;7.55;3.65;;;16.90;99.90;;;;;;5014182;28;20038;-69
2023/07/01 07:00:11;;;;;;;10.85;3.80;;;16.90;99.90;;;;;;5014212;28;20049;-69
2023/07/01 07:02:37;;;;;;;6.88;3.80;;;16.90;99.90;;;;;;4996915;28;20049;-69
2023/07/01 07:05:08;;;;;;;10.13;4.30;;;16.90;99.90;;;;;;5013934;28;20109;-69
2023/07/01 07:07:34;;;;;;;9.00;3.75;;;16.90;99.90;;;;;;5014221;28;20104;-68
2023/07/01 07:10:00;;;;;;;7.82;3.58;;;17.00;99.90;;;;;;4996254;28;20073;-69
2023/07/01 07:12:26;;;;;;;9.13;4.10;;;17.00;99.90;;;;;;4996767;28;20125;-68
2023/07/01 07:14:52;;;;;;;9.17;3.60;;;17.00;99.90;;;;;;5014441;28;20037;-68
2023/07/01 07:17:18;;;;;;;7.13;3.80;;;17.00;99.90;;;;;;4996590;28;20339;-69
2023/07/01 07:19:44;;;;;;;6.43;3.40;;;17.00;99.90;;;;;;4996656;28;20061;-67
2023/07/01 07:22:09;;;;;;;8.97;4.00;;;17.10;99.90;;;;;;5014614;28;20077;-66
2023/07/01 07:24:35;;;;;;;7.63;4.00;;;17.10;99.90;;;;;;5014602;28;20371;-68
2023/07/01 07:27:02;;;;;;;7.38;4.15;;;;;;;;;;4996584;28;20129;-67
2023/07/01 07:29:28;;;;;;;;;;;17.30;99.90;;;;;;5014807;28;20038;-68
2023/07/01 07:31:57;;;;;;;5.65;3.67;;;;;;;;;;5013703;28;20292;-69
2023/07/01 07:34:23;;;;;;;8.55;4.55;;;;;;;;;;5013483;28;20048;-68
2023/07/01 07:36:50;;;;;;;7.18;4.13;;;;;;;;;;5013532;28;20038;-68
2023/07/01 07:39:16;;;;;;;10.98;4.22;;;;;;;;;;5013766;28;20100;-67
2023/07/01 07:41:43;;;;;;;10.23;4.65;;;;;;;;;;4996301;28;20108;-67
2023/07/01 07:44:09;;;;;;;9.93;3.90;;;;;;;;;;4980105;28;20429;-68
2023/07/01 07:46:37;;;;;;;6.47;3.50;;;;;;;;;;5013625;28;20073;-69
2023/07/01 07:49:04;;;;;;;6.63;3.35;;;;;;;;;;5013183;28;20514;-68
2023/07/01 07:51:30;;;;;;;6.85;3.90;;;;;;;;;;4996789;28;20104;-68
2023/07/01 07:53:56;;;;;;;8.35;4.05;;;;;;;;;;4996648;28;20469;-68
2023/07/01 07:56:23;;;;;;;6.90;4.30;;;;;;;;;;4995590;28;20042;-69
2023/07/01 07:58:49;;;;;;;6.47;3.58;;;;;;;;;;5013491;28;20046;-69
2023/07/01 08:01:15;;;;;;;5.67;3.40;;;;;;;;;;4996190;28;20042;-68
2023/07/01 08:03:41;;;;;;;7.25;3.90;;;17.80;99.90;;;;;;5013127;28;20364;-69
2023/07/01 08:06:07;;;;;;;7.30;3.47;;;17.80;99.90;;;;;;4996107;28;20058;-68
2023/07/01 08:08:33;;;;;;;5.88;3.47;;;17.80;99.90;;;;;;4996615;28;20046;-69
2023/07/01 08:10:59;;;;;;;5.63;3.30;;;17.80;99.90;;;;;;5013349;28;20418;-67
2023/07/01 08:13:25;;;;;;;6.43;3.22;;;17.90;99.90;;;;;;4996009;28;20129;-68
2023/07/01 08:15:51;;;;;;;5.97;3.42;;;17.90;99.90;;;;;;5013240;28;20121;-68
2023/07/01 08:18:17;;;;;;;5.50;4.10;;;17.90;99.90;;;;;;4996640;28;20108;-67
2023/07/01 08:20:46;;;;;;;8.70;3.23;;;17.80;99.90;;;;;;5013615;28;20646;-67
2023/07/01 08:23:14;;;;;;;5.55;3.03;;;17.90;99.90;;;;;;4995768;28;20053;-67
2023/07/01 08:25:41;;;;;;;5.75;3.25;;;17.90;99.90;;;;;;5013486;28;20140;-67
2023/07/01 08:28:07;;;;;;;5.30;3.38;;;17.90;99.90;;;;;;4996264;28;20060;-67
2023/07/01 08:30:33;;;;;;;5.97;3.57;;;17.90;99.90;;;;;;5013301;28;20038;-67
2023/07/01 08:32:58;;;;;;;4.73;3.27;;;17.80;99.90;;;;;;4995884;28;20462;-68
2023/07/01 08:35:24;;;;;;;6.63;2.85;;;17.80;99.90;;;;;;5013428;28;20121;-67
2023/07/01 08:37:50;;;;;;;6.73;3.10;;;17.80;99.90;;;;;;5013707;28;20037;-67
2023/07/01 08:40:15;;;;;;;6.00;3.17;;;17.90;99.90;;;;;;4995620;28;20049;-67
2023/07/01 08:42:50;;;;;;;5.23;3.13;;;17.90;99.90;;;;;;4995708;28;20489;-67
2023/07/01 08:45:20;;;;;;;5.80;3.33;;;17.90;99.90;;;;;;5014613;28;20057;-69
2023/07/01 08:47:47;;;;;;;6.35;3.55;;;17.90;99.90;;;;;;5016757;28;20057;-68
2023/07/01 08:50:18;;;;;;;5.75;3.38;;;17.80;99.90;;;;;;4999485;28;20054;-68
2023/07/01 08:52:47;;;;;;;7.43;3.75;;;17.90;99.90;;;;;;5016267;28;20057;-68
2023/07/01 08:55:13;;;;;;;6.20;3.58;;;17.90;99.90;;;;;;5016235;28;20037;-69
2023/07/01 08:57:40;;;;;;;7.60;3.70;;;18.00;99.90;;;;;;4998913;28;20042;-68
2023/07/01 09:00:07;;;;;;;7.57;3.38;;;18.00;99.90;;;;;;4982673;28;20052;-67
2023/07/01 09:02:34;;;;;;;12.85;4.28;;;18.10;99.90;;;;;;5016359;28;20064;-67
2023/07/01 09:05:00;;;;;;;6.80;3.95;;;18.10;99.90;;;;;;5016052;28;20108;-67
2023/07/01 09:07:25;;;;;;;11.20;4.23;;;17.90;99.90;;;;;;5016787;28;20124;-67
2023/07/01 09:09:51;;;;;;;10.23;3.50;;;18.00;99.90;;;;;;5016175;28;20034;-66
2023/07/01 09:12:17;;;;;;;9.87;3.50;;;18.10;99.90;;;;;;5016101;28;20394;-67
2023/07/01 09:14:58;;;;;;;7.73;3.60;;;18.10;99.90;;;;;;5015871;28;20045;-66
2023/07/01 09:17:33;;;;;;;5.95;4.03;;;18.20;99.90;;;;;;4998486;28;20134;-66
2023/07/01 09:20:00;;;;;;;6.25;3.30;;;18.10;99.90;;;;;;5015930;28;20121;-67
2023/07/01 09:22:26;;;;;;;6.70;3.47;;;18.10;99.90;;;;;;5016164;28;20355;-66
2023/07/01 09:24:52;;;;;;;5.85;3.55;;;18.10;99.90;;;;;;4998443;28;20363;-66
2023/07/01 09:27:18;;;;;;;7.70;4.10;;;18.10;99.90;;;;;;5016106;28;20052;-66
2023/07/01 09:29:43;;;;;;;6.07;3.93;;;18.10;99.90;;;;;;5016070;28;20077;-66
2023/07/01 09:32:09;;;;;;;6.22;3.35;;;18.00;99.90;;;;;;4999162;28;20052;-68
2023/07/01 09:34:58;;;;;;;5.93;3.27;;;18.00;99.90;;;;;;5015559;28;20351;-66
2023/07/01 09:37:25;;;;;;;5.72;3.08;;;18.10;99.90;;;;;;4998946;28;20045;-66
2023/07/01 09:39:50;;;;;;;;;;;18.10;99.90;;;;;;5016497;28;20065;-67
2023/07/01 09:42:18;;;;;;;6.32;3.20;;;18.10;99.90;;;;;;4998891;28;20401;-67
2023/07/01 09:45:08;;;;;;;5.47;3.17;;;18.10;99.90;;;;;;4982005;28;20363;-66
2023/07/01 09:47:34;;;;;;;6.85;3.58;;;18.20;99.90;;;;;;5016281;28;20418;-67
2023/07/01 09:50:02;;;;;;;6.23;3.93;;;18.10;99.90;;;;;;4998129;28;20116;-67
2023/07/01 09:52:35;;;;;;;5.80;3.58;;;18.20;99.90;;;;;;4982027;28;20327;-68
2023/07/01 09:55:03;;;;;;;6.00;3.33;;;18.30;99.90;;;;;;5015235;28;20052;-67
2023/07/01 09:57:30;;;;;;;5.75;3.58;;;18.40;99.90;;;;;;4996901;28;20042;-68
2023/07/01 09:59:56;;;;;;;;;;;18.40;99.90;;;;;;5015595;28;20042;-70
2023/07/01 10:02:22;;;;;;;6.90;3.30;;;18.50;99.90;;;;;;4997435;28;19963;-69
2023/07/01 10:04:48;;;;;;;;;;;18.50;99.90;;;;;;4982147;28;20108;-68
2023/07/01 10:07:14;;;;;;;6.50;3.45;;;18.60;99.90;;;;;;4997286;28;19917;-69
2023/07/01 10:09:44;;;;;;;4.40;2.27;;;18.50;99.90;;;;;;5015535;28;20046;-66
2023/07/01 10:12:11;;;;;;;5.20;3.30;;;18.60;99.90;;;;;;5014860;28;20038;-67
2023/07/01 10:14:38;;;;;;;6.10;3.33;;;18.60;99.90;;;;;;5014752;28;20046;-68
2023/07/01 10:17:04;;;;;;;;;;;18.60;99.90;;;;;;4997646;28;20125;-67
2023/07/01 10:19:32;;;;;;;5.18;2.97;;;18.70;99.90;;;;;;4997483;28;19925;-68
2023/07/01 10:22:20;;;;;;;4.88;3.08;;;18.80;99.90;;;;;;5014938;28;20352;-69
2023/07/01 10:25:11;;;;;;;5.10;3.13;;;19.00;99.90;;;;;;5014641;28;20046;-68
2023/07/01 10:28:06;;;;;;;6.43;3.10;;;19.00;99.90;;;;;;4997447;28;20046;-69
2023/07/01 10:30:44;;;;;;;5.68;2.70;;;19.20;99.90;;;;;;5014574;28;20104;-69
2023/07/01 10:33:30;;;;;;;5.07;3.00;;;19.20;99.90;;;;;;4997960;28;20050;-69
2023/07/01 10:36:08;;;;;;;5.05;2.80;;;19.30;99.90;;;;;;4996875;28;20539;-69
2023/07/01 10:38:36;;;;;;;5.15;2.60;;;19.40;99.90;;;;;;5014980;28;20048;-68
2023/07/01 10:41:02;;;;;;;5.50;3.00;;;19.40;99.90;;;;;;4997037;28;20045;-69
2023/07/01 10:43:36;;;;;;;5.15;2.72;;;19.50;99.90;;;;;;4996815;28;20089;-68
2023/07/01 10:46:07;;;;;;;5.05;2.90;;;19.50;99.90;;;;;;4997729;28;20058;-69
2023/07/01 10:48:34;;;;;;;6.75;2.63;;;19.60;99.90;;;;;;4996878;28;20046;-69
2023/07/01 10:51:07;;;;;;;7.22;2.60;;;19.60;99.90;;;;;;4996754;28;20045;-69
2023/07/01 10:54:04;;;;;;;5.10;2.45;;;19.60;99.90;;;;;;4997617;28;20054;-68
2023/07/01 10:56:35;;;;;;;3.97;2.58;;;19.70;99.90;;;;;;4984564;28;20115;-68
2023/07/01 10:59:25;;;;;;;5.47;2.83;;;19.70;99.90;;;;;;5014472;28;20120;-69
2023/07/01 11:01:56;;;;;;;4.05;2.55;;;19.60;99.90;;;;;;4997444;28;20053;-70
2023/07/01 11:04:23;;;;;;;7.25;2.33;;;19.60;99.90;;;;;;4996570;28;20128;-69
2023/07/01 11:06:54;;;;;;;3.85;2.33;;;19.60;99.90;;;;;;4996380;28;20084;-67
2023/07/01 11:09:32;;;;;;;6.07;2.38;;;19.60;99.90;;;;;;4996570;28;20058;-69
2023/07/01 11:12:00;;;;;;;5.63;2.38;;;19.80;99.90;;;;;;4996988;28;20050;-69
2023/07/01 11:14:34;;;;;;;5.07;2.55;;;19.90;99.90;;;;;;4996083;28;20089;-69
2023/07/01 11:17:15;;;;;;;4.35;2.60;;;20.00;99.90;;;;;;4996836;28;20046;-70
2023/07/01 11:19:41;;;;;;;5.03;2.40;;;20.10;99.90;;;;;;5014410;28;20053;-70
2023/07/01 11:22:11;;;;;;;4.10;2.40;;;20.20;99.90;;;;;;4996298;28;20211;-69
2023/07/01 11:24:37;;;;;;;4.20;2.28;;;20.20;99.90;;;;;;4996113;28;20054;-68
2023/07/01 11:27:07;;;;;;;6.27;2.60;;;20.30;99.90;;;;;;5013723;28;20053;-69
2023/07/01 11:29:33;;;;;;;4.20;2.42;;;20.40;99.90;;;;;;4996098;28;20315;-69
2023/07/01 11:32:12;;;;;;;7.10;2.67;;;20.50;99.90;;;;;;4979943;28;20417;-69
2023/07/01 11:34:39;;;;;;;5.25;2.30;;;20.50;99.90;;;;;;4996217;28;20053;-69
2023/07/01 11:37:05;;;;;;;4.35;2.60;;;20.50;99.90;;;;;;4997070;28;20088;-69
2023/07/01 11:39:31;;;;;;;5.10;2.60;;;20.50;99.90;;;;;;5013584;28;20050;-68
2023/07/01 11:42:02;;;;;;;5.03;2.80;;;20.70;99.90;;;;;;4996297;28;20426;-68
2023/07/01 11:44:32;;;;;;;5.03;2.67;;;20.70;99.90;;;;;;5014157;28;20445;-69
2023/07/01 11:46:57;;;;;;;6.75;2.30;;;20.80;99.90;;;;;;5013456;28;20050;-69
2023/07/01 11:49:25;;;;;;;4.50;2.83;;;20.80;99.90;;;;;;4980041;28;20498;-69
2023/07/01 11:51:51;;;;;;;4.90;3.10;;;20.70;99.90;;;;;;4995925;28;20465;-69
2023/07/01 11:54:20;;;;;;;5.10;2.60;;;20.40;99.90;;;;;;4980118;28;20129;-70
2023/07/01 11:56:47;;;;;;;5.70;3.33;;;20.20;99.90;;;;;;5013893;28;20386;-71
2023/07/01 11:59:33;;;;;;;5.60;3.55;;;20.00;99.90;;;;;;4996175;28;20078;-70
2023/07/01 12:01:59;;;;;;;6.88;3.22;;;20.00;99.90;;;;;;4979824;28;20046;-69
2023/07/01 12:04:25;;;;;;;4.97;3.00;;;19.80;99.90;;;;;;4979844;28;20046;-69
2023/07/01 12:07:08;;;;;;;6.95;3.25;;;19.90;99.90;;;;;;4980027;28;20390;-70
2023/07/01 12:09:34;;;;;;;5.38;3.08;;;19.90;99.90;;;;;;4995657;28;20045;-70
2023/07/01 12:12:00;;;;;;;5.35;3.08;;;19.80;99.90;;;;;;4996841;28;20054;-70
2023/07/01 12:14:26;;;;;;;5.07;2.93;;;19.80;99.90;;;;;;5013841;28;20049;-70
2023/07/01 12:16:53;;;;;;;5.50;3.20;;;19.70;99.90;;;;;;5013230;28;20049;-70
2023/07/01 12:19:21;;;;;;;9.68;3.50;;;19.50;99.90;;;;;;4996052;28;20061;-67
2023/07/01 12:21:47;;;;;;;4.93;2.55;;;19.50;99.90;;;;;;4999442;28;20149;-67
2023/07/01 12:24:17;;;;;;;4.47;2.00;;;19.20;99.90;;;;;;5017437;28;20497;-65
2023/07/01 12:26:43;;;;;;;3.67;1.98;;;19.10;99.90;;;;;;4999468;28;20133;-66
2023/07/01 12:29:08;;;;;;;5.03;1.60;;;19.00;99.90;;;;;;4999377;28;20132;-64
2023/07/01 12:31:34;;;;;;;4.73;1.90;;;;;;;;;;4983061;28;20088;-65
2023/07/01 12:34:01;;;;;;;5.85;1.95;;;;;;;;;;5016834;28;20104;-66
2023/07/01 12:36:27;;;;;;;4.38;1.55;;;;;;;;;;4982915;28;20049;-67
2023/07/01 12:38:53;;;;;;;3.80;2.25;;;;;;;;;;5016730;28;20188;-68
2023/07/01 12:41:20;;;;;;;5.72;2.53;;;;;;;;;;4999363;28;20049;-68
2023/07/01 12:43:46;;;;;;;;;;;;;;;;;;5016598;28;20505;-69
2023/07/01 12:46:14;;;;;;;4.85;2.47;;;;;;;;;;5000039;28;19922;-68
2023/07/01 12:48:43;;;;;;;5.03;2.55;;;;;;;;;;5016445;28;20144;-69
2023/07/01 12:51:09;;;;;;;6.55;2.72;;;;;;;;;;4999147;28;20147;-69
2023/07/01 12:53:35;;;;;;;5.97;2.95;;;;;;;;;;5016184;28;20077;-68
2023/07/01 12:56:01;;;;;;;5.50;2.95;;;;;;;;;;5016270;28;20041;-69
2023/07/01 12:58:27;;;;;;;5.85;2.92;;;;;;;;;;5016187;28;20102;-69
2023/07/01 13:00:53;;;;;;;5.82;3.30;;;;;;;;;;4982732;28;20127;-69